ADDS METAR Data INFO
IDs: Format: Raw Decoded Include TAF

Data at: 1407 UTC 24 Feb 2018

KPCW 241355Z AUTO 10011KT 10SM OVC016 03/01 A3021 RMK AO2
KPCW 241335Z AUTO 08010KT 10SM OVC015 03/01 A3020 RMK AO2
KPCW 241315Z AUTO 08009KT 10SM OVC017 03/01 A3020 RMK AO2
KPCW 241255Z AUTO 07008KT 10SM OVC017 03/01 A3020 RMK AO2
KPCW 241235Z AUTO 05006KT 8SM OVC017 03/02 A3021 RMK AO2
KPCW 241215Z AUTO 07006KT 9SM -UP OVC016 03/02 A3020 RMK AO2
KPCW 241155Z AUTO 04006KT 10SM -UP OVC016 03/02 A3021 RMK AO2
KPCW 241135Z AUTO 04006KT 10SM -UP OVC016 03/02 A3021 RMK AO2
KPCW 241115Z AUTO 03007KT 10SM -UP OVC017 04/02 A3022 RMK AO2
KPCW 241055Z AUTO 08005KT 10SM OVC016 04/02 A3022 RMK AO2
KPCW 241035Z AUTO 03003KT 10SM OVC016 03/02 A3021 RMK AO2
KPCW 241015Z AUTO 36004KT 10SM OVC015 03/02 A3022 RMK AO2
KPCW 240955Z AUTO 36007KT 10SM OVC014 03/02 A3021 RMK AO2
KPCW 240935Z AUTO 01007KT 10SM OVC015 03/02 A3021 RMK AO2
KPCW 240915Z AUTO 35007KT 10SM OVC015 03/02 A3022 RMK AO2
KPCW 240855Z AUTO 33004KT 10SM OVC016 03/02 A3024 RMK AO2
KPCW 240835Z AUTO 36005KT 10SM OVC015 03/02 A3023 RMK AO2
KPCW 240815Z AUTO 02004KT 10SM OVC015 03/02 A3022 RMK AO2
KPCW 240755Z AUTO 01008KT 10SM OVC015 04/02 A3022 RMK AO2
KPCW 240735Z AUTO 35008KT 10SM OVC015 03/02 A3022 RMK AO2
KPCW 240715Z AUTO 36008KT 10SM OVC015 04/02 A3020 RMK AO2
KPCW 240655Z AUTO 34006KT 10SM OVC015 03/02 A3022 RMK AO2
KPCW 240635Z AUTO 33007KT 10SM OVC014 04/03 A3022 RMK AO2
KPCW 240615Z AUTO 34006KT 7SM OVC014 04/03 A3021 RMK AO2
KPCW 240555Z AUTO 34006KT 7SM OVC013 05/04 A3022 RMK AO2
KPCW 240535Z AUTO 33006KT 8SM OVC013 05/04 A3022 RMK AO2
KPCW 240515Z AUTO 32004KT 10SM OVC013 06/05 A3021 RMK AO2
KPCW 240455Z AUTO 28006KT 10SM OVC015 07/06 A3020 RMK AO2
KPCW 240435Z AUTO 28007KT 10SM OVC016 08/06 A3020 RMK AO2
KPCW 240415Z AUTO 29008KT 10SM OVC016 08/06 A3020 RMK AO2
KPCW 240355Z AUTO 29007KT 10SM OVC017 07/06 A3020 RMK AO2
KPCW 240335Z AUTO 29008KT 10SM OVC018 07/06 A3020 RMK AO2
KPCW 240315Z AUTO 29008KT 10SM OVC018 08/06 A3020 RMK AO2
KPCW 240255Z AUTO 27008KT 10SM OVC016 09/07 A3019 RMK AO2
KPCW 240235Z AUTO 27007KT 10SM OVC014 09/07 A3020 RMK AO2
KPCW 240215Z AUTO 30007KT 10SM OVC015 07/06 A3020 RMK AO2
KPCW 240155Z AUTO 30007KT 10SM OVC014 08/07 A3020 RMK AO2
KPCW 240135Z AUTO 28010KT 10SM OVC015 09/07 A3020 RMK AO2
KPCW 240115Z AUTO 27009KT 10SM OVC015 09/07 A3019 RMK AO2
KPCW 240055Z AUTO 29010KT 10SM OVC014 09/08 A3019 RMK AO2
KPCW 240035Z AUTO 29010G15KT 10SM OVC015 10/08 A3018 RMK AO2
KPCW 240015Z AUTO 28010G17KT 10SM OVC016 10/08 A3017 RMK AO2
KPCW 232355Z AUTO 27012G21KT 10SM OVC018 10/08 A3017 RMK AO2
KPCW 232335Z AUTO 28012KT 10SM OVC018 10/08 A3015 RMK AO2
KPCW 232315Z AUTO 27013G18KT 10SM OVC017 11/08 A3015 RMK AO2
KPCW 232255Z AUTO 28013KT 10SM OVC016 11/09 A3015 RMK AO2
KPCW 232235Z AUTO 29013G19KT 10SM BKN014 OVC020 11/09 A3014 RMK AO2
KPCW 232215Z AUTO 27011G20KT 10SM OVC017 11/09 A3013 RMK AO2
KPCW 232155Z AUTO 28011G22KT 10SM BKN019 OVC025 12/10 A3013 RMK AO2
KPCW 232135Z AUTO 28015G23KT 10SM BKN018 OVC025 13/10 A3012 RMK AO2
KPCW 232115Z AUTO 27014KT 10SM BKN015 BKN022 BKN029 13/11 A3011 RMK AO2
KPCW 232055Z AUTO 28012G24KT 10SM OVC014 12/11 A3011 RMK AO2
KPCW 232035Z AUTO 27012G18KT 10SM OVC015 13/11 A3011 RMK AO2
KPCW 232015Z AUTO 26017KT 10SM OVC018 14/12 A3010 RMK AO2
KPCW 231955Z AUTO 26018G23KT 10SM SCT014 BKN019 OVC040 14/12 A3009 RMK AO2
KPCW 231935Z AUTO 26015G24KT 10SM FEW014 FEW021 BKN041 14/12 A3009 RMK AO2
KPCW 231915Z AUTO 25017G23KT 10SM SCT013 SCT044 BKN060 14/12 A3008 RMK AO2
KPCW 231855Z AUTO 26018KT 10SM OVC014 13/12 A3009 RMK AO2
KPCW 231835Z AUTO 26017G22KT 10SM BKN013 BKN044 OVC055 13/12 A3009 RMK AO2
KPCW 231815Z AUTO 26012G17KT 1SM BR SCT002 BKN007 OVC055 12/12 A3008 RMK AO2
KPCW 231755Z AUTO 30004KT M1/4SM FG OVC002 07/07 A3010 RMK AO2
KPCW 231735Z AUTO 31006KT 1/4SM FG OVC003 08/08 A3010 RMK AO2
KPCW 231715Z AUTO 25010G15KT 3SM BR FEW005 BKN010 OVC014 11/11 A3010 RMK AO2
KPCW 231655Z AUTO 24005KT 1SM BR SCT004 BKN008 OVC013 09/09 A3010 RMK AO2
KPCW 231635Z AUTO 19008KT 1 1/2SM BR SCT009 BKN034 OVC040 08/08 A3008 RMK AO2
KPCW 231615Z AUTO 18009KT 2 1/2SM BR BKN040 OVC055 08/08 A3007 RMK AO2
KPCW 231555Z AUTO 15006KT 1 1/2SM BR BKN005 OVC042 07/07 A3008 RMK AO2
KPCW 231535Z AUTO 00000KT 1SM -RA OVC005 07/06 A3010 RMK AO2
KPCW 231515Z AUTO 00000KT 3/4SM -RA OVC005 06/06 A3011 RMK AO2
KPCW 231455Z AUTO 00000KT 2 1/2SM BR OVC006 06/06 A3011 RMK AO2
KPCW 231435Z AUTO 15006KT 1 3/4SM BR OVC006 06/05 A3011 RMK AO2
KPCW 231415Z AUTO 13007KT 1 1/2SM BR OVC007 05/04 A3011 RMK AO2
KPCW 231355Z AUTO 15006KT 1 1/2SM BR SCT004 BKN009 OVC035 04/04 A3014 RMK AO2
KPCW 231335Z AUTO 14006KT 1 1/4SM BR BKN004 OVC034 03/03 A3015 RMK AO2
KPCW 231315Z AUTO 13006KT 3/4SM -UP OVC004 03/03 A3016 RMK AO2
KPCW 231255Z AUTO 13007KT 1/2SM -UP OVC003 02/02 A3018 RMK AO2
KPCW 231235Z AUTO 12008KT 1SM BR OVC003 02/02 A3019 RMK AO2
KPCW 231215Z AUTO 12008KT 2SM BR OVC003 02/02 A3021 RMK AO2
KPCW 231155Z AUTO 13012KT 1 3/4SM BR OVC003 02/02 A3021 RMK AO2
KPCW 231135Z AUTO 13011KT 1 3/4SM BR OVC003 02/02 A3023 RMK AO2
KPCW 231115Z AUTO 13011KT 1SM BR OVC003 02/02 A3024 RMK AO2
KPCW 231055Z AUTO 13009KT 1 1/4SM BR OVC003 02/02 A3027 RMK AO2
KPCW 231035Z AUTO 12010KT 2SM BR OVC003 02/02 A3026 RMK AO2
KPCW 231015Z AUTO 12009KT 1 3/4SM BR OVC003 02/02 A3028 RMK AO2
KPCW 230955Z AUTO 10009KT 1 1/4SM -UP OVC003 02/01 A3028 RMK AO2
KPCW 230935Z AUTO 08009KT 3/4SM -UP OVC003 02/01 A3030 RMK AO2
KPCW 230915Z AUTO 35008KT 1 3/4SM BR OVC003 02/02 A3035 RMK AO2
KPCW 230855Z AUTO 06005KT 1 3/4SM BR OVC003 02/02 A3032 RMK AO2
KPCW 230835Z AUTO 10007KT 1 1/2SM BR OVC003 02/02 A3031 RMK AO2
KPCW 230815Z AUTO 10008KT 1 3/4SM BR OVC005 02/01 A3032 RMK AO2
KPCW 230755Z AUTO 10007KT 4SM BR OVC007 02/01 A3033 RMK AO2
KPCW 230735Z AUTO 11007KT 5SM BR OVC008 02/01 A3034 RMK AO2
KPCW 230715Z AUTO 12007KT 4SM BR OVC009 02/01 A3035 RMK AO2
KPCW 230655Z AUTO 10006KT 7SM FEW005 OVC009 02/01 A3035 RMK AO2
KPCW 230635Z AUTO 10008KT 8SM SCT005 OVC010 01/01 A3036 RMK AO2
KPCW 230615Z AUTO 08007KT 8SM BKN005 OVC013 01/01 A3038 RMK AO2
KPCW 230555Z AUTO 10009KT 8SM OVC005 01/00 A3039 RMK AO2
KPCW 230535Z AUTO 10009KT 10SM OVC005 01/00 A3040 RMK AO2
KPCW 230515Z AUTO 09010KT 10SM OVC006 01/00 A3042 RMK AO2
KPCW 230455Z AUTO 09011KT 10SM OVC006 01/00 A3043 RMK AO2
KPCW 230435Z AUTO 09013KT 10SM OVC007 01/00 A3043 RMK AO2
KPCW 230415Z AUTO 10010G16KT 10SM OVC008 01/M00 A3044 RMK AO2
KPCW 230355Z AUTO 10010G17KT 10SM OVC008 01/M00 A3045 RMK AO2
KPCW 230335Z AUTO 09012KT 10SM OVC008 01/M00 A3044 RMK AO2
KPCW 230315Z AUTO 09014G20KT 10SM OVC008 01/M00 A3045 RMK AO2
KPCW 230255Z AUTO 09015KT 10SM OVC009 01/M00 A3046 RMK AO2
KPCW 230235Z AUTO 09016KT 10SM OVC009 01/M00 A3046 RMK AO2
KPCW 230215Z AUTO 10017KT 10SM OVC009 01/M00 A3047 RMK AO2